createdAt,value
2023-03-17T00:01:20.820Z,7.20
2023-03-17T00:03:49.893Z,7.30
2023-03-17T00:06:29.319Z,7.33
2023-03-17T00:08:57.360Z,7.31
2023-03-17T00:11:25.343Z,7.33
2023-03-17T00:13:52.875Z,7.50
2023-03-17T00:16:27.058Z,7.56
2023-03-17T00:18:55.376Z,7.50
2023-03-17T00:21:28.672Z,7.45
2023-03-17T00:23:59.550Z,7.45
2023-03-17T00:26:27.063Z,7.48
2023-03-17T00:28:54.766Z,7.48
2023-03-17T00:31:24.546Z,7.52
2023-03-17T00:33:53.960Z,7.42
2023-03-17T00:36:27.966Z,7.45
2023-03-17T00:38:54.510Z,7.41
2023-03-17T00:41:21.073Z,7.45
2023-03-17T00:43:47.633Z,7.48
2023-03-17T00:46:23.441Z,7.43
2023-03-17T00:48:52.844Z,7.26
2023-03-17T00:51:19.320Z,7.26
2023-03-17T00:53:45.870Z,7.30
2023-03-17T00:56:18.279Z,7.16
2023-03-17T00:58:45.707Z,7.46
2023-03-17T01:01:12.557Z,7.56
2023-03-17T01:03:39.674Z,7.43
2023-03-17T01:06:11.013Z,7.23
2023-03-17T01:08:39.198Z,7.12
2023-03-17T01:11:06.678Z,7.22
2023-03-17T01:13:34.223Z,7.46
2023-03-17T01:16:01.269Z,7.48
2023-03-17T01:18:27.826Z,7.46
2023-03-17T01:20:54.644Z,7.43
2023-03-17T01:23:22.163Z,7.49
2023-03-17T01:25:49.147Z,7.59
2023-03-17T01:28:20.523Z,7.60
2023-03-17T01:30:47.507Z,7.57
2023-03-17T01:33:14.807Z,7.56
2023-03-17T01:35:43.912Z,7.59
2023-03-17T01:38:10.604Z,7.62
2023-03-17T01:40:51.840Z,7.72
2023-03-17T01:43:23.228Z,7.82
2023-03-17T01:46:11.869Z,8.00
2023-03-17T01:48:42.698Z,7.98
2023-03-17T01:51:13.771Z,7.99
2023-03-17T01:53:41.907Z,7.95
2023-03-17T01:56:08.425Z,7.94
2023-03-17T01:58:35.461Z,7.87
2023-03-17T02:01:01.948Z,7.83
2023-03-17T02:03:29.822Z,7.71
2023-03-17T02:05:58.987Z,7.75
2023-03-17T02:08:26.330Z,7.79
2023-03-17T02:10:54.218Z,7.79
2023-03-17T02:13:20.870Z,7.85
2023-03-17T02:15:50.749Z,7.95
2023-03-17T02:18:20.370Z,7.98
2023-03-17T02:20:49.291Z,7.98
2023-03-17T02:23:22.413Z,7.94
2023-03-17T02:25:50.433Z,7.96
2023-03-17T02:28:23.405Z,8.02
2023-03-17T02:30:49.893Z,8.11
2023-03-17T02:33:16.427Z,8.08
2023-03-17T02:35:43.201Z,8.07
2023-03-17T02:38:12.262Z,8.10
2023-03-17T02:40:38.781Z,8.11
2023-03-17T02:43:05.690Z,8.17
2023-03-17T02:45:32.318Z,8.29
2023-03-17T02:48:00.293Z,8.35
2023-03-17T02:50:29.337Z,8.28
2023-03-17T02:52:56.052Z,8.31
2023-03-17T02:55:22.627Z,8.35
2023-03-17T02:57:49.097Z,8.38
2023-03-17T03:00:18.914Z,8.41
2023-03-17T03:02:45.437Z,8.42
2023-03-17T03:05:11.947Z,8.41
2023-03-17T03:07:38.415Z,8.45
2023-03-17T03:10:05.766Z,8.45
2023-03-17T03:12:33.265Z,8.39
2023-03-17T03:15:00.728Z,8.41
2023-03-17T03:17:27.266Z,8.43
2023-03-17T03:19:53.793Z,8.45
2023-03-17T03:22:20.396Z,8.46
2023-03-17T03:24:46.900Z,8.48
2023-03-17T03:27:13.364Z,8.56
2023-03-17T03:29:39.914Z,8.53
2023-03-17T03:32:07.256Z,8.63
2023-03-17T03:34:33.848Z,8.59
2023-03-17T03:37:00.553Z,8.71
2023-03-17T03:39:27.008Z,8.70
2023-03-17T03:41:57.306Z,8.60
2023-03-17T03:44:24.435Z,8.48
2023-03-17T03:46:54.088Z,8.39
2023-03-17T03:49:21.032Z,8.33
2023-03-17T03:51:47.495Z,8.33
2023-03-17T03:54:14.205Z,8.32
2023-03-17T03:56:40.789Z,8.26
2023-03-17T03:59:07.516Z,8.42
2023-03-17T04:01:34.001Z,8.44
2023-03-17T04:04:00.472Z,8.42
2023-03-17T04:06:27.010Z,8.85
2023-03-17T04:08:53.483Z,8.90
2023-03-17T04:11:19.976Z,9.02
2023-03-17T04:13:46.487Z,8.94
2023-03-17T04:16:13.002Z,9.06
2023-03-17T04:18:39.745Z,8.90
2023-03-17T04:21:08.293Z,8.81
2023-03-17T04:23:34.808Z,8.98
2023-03-17T04:26:01.484Z,9.09
2023-03-17T04:28:27.951Z,9.04
2023-03-17T04:30:54.500Z,8.93
2023-03-17T04:33:21.406Z,8.83
2023-03-17T04:35:48.136Z,8.53
2023-03-17T04:38:14.639Z,8.37
2023-03-17T04:40:41.563Z,8.19
2023-03-17T04:43:09.110Z,8.29
2023-03-17T04:45:36.636Z,7.71
2023-03-17T04:48:03.558Z,7.75
2023-03-17T04:50:30.315Z,7.99
2023-03-17T04:52:57.320Z,7.81
2023-03-17T04:55:23.764Z,7.48
2023-03-17T04:57:50.312Z,7.06
2023-03-17T05:00:18.139Z,7.00
2023-03-17T05:02:44.702Z,7.09
2023-03-17T05:05:12.219Z,7.22
2023-03-17T05:07:38.843Z,7.40
2023-03-17T05:10:06.575Z,7.65
2023-03-17T05:12:33.041Z,7.47
2023-03-17T05:14:59.511Z,7.17
2023-03-17T05:17:26.361Z,7.42
2023-03-17T05:19:52.797Z,7.46
2023-03-17T05:22:19.456Z,7.31
2023-03-17T05:24:45.973Z,7.00
2023-03-17T05:27:12.471Z,6.82
2023-03-17T05:29:39.199Z,6.85
2023-03-17T05:32:05.762Z,6.85
2023-03-17T05:34:32.223Z,7.02
2023-03-17T05:36:58.681Z,7.02
2023-03-17T05:39:25.176Z,7.07
2023-03-17T05:41:52.271Z,6.97
2023-03-17T05:44:19.171Z,6.85
2023-03-17T05:46:46.006Z,6.75
2023-03-17T05:49:16.229Z,6.67
2023-03-17T05:51:42.785Z,6.69
2023-03-17T05:54:09.283Z,6.73
2023-03-17T05:56:37.086Z,6.79
2023-03-17T05:59:04.559Z,6.58
2023-03-17T06:01:31.407Z,6.43
2023-03-17T06:03:58.126Z,6.40
2023-03-17T06:06:24.603Z,6.36
2023-03-17T06:08:54.372Z,6.38
2023-03-17T06:11:21.584Z,6.37
2023-03-17T06:13:48.349Z,6.42
2023-03-17T06:16:15.152Z,6.46
2023-03-17T06:18:41.699Z,6.33
2023-03-17T06:21:08.186Z,6.22
2023-03-17T06:23:34.737Z,5.98
2023-03-17T06:26:01.557Z,6.05
2023-03-17T06:28:28.081Z,5.99
2023-03-17T06:30:54.640Z,6.02
2023-03-17T06:33:24.823Z,6.10
2023-03-17T06:35:51.740Z,6.14
2023-03-17T06:38:18.302Z,6.32
2023-03-17T06:40:45.263Z,6.44
2023-03-17T06:43:12.276Z,6.53
2023-03-17T06:45:38.912Z,6.58
2023-03-17T06:48:06.958Z,6.78
2023-03-17T06:50:33.420Z,6.91
2023-03-17T06:52:59.942Z,6.95
2023-03-17T06:55:27.321Z,7.05
2023-03-17T06:57:54.217Z,7.11
2023-03-17T07:00:22.561Z,7.20
2023-03-17T07:02:49.559Z,7.41
2023-03-17T07:05:16.190Z,7.55
2023-03-17T07:07:42.664Z,7.85
2023-03-17T07:10:13.768Z,8.37
2023-03-17T07:12:40.281Z,8.93
2023-03-17T07:15:07.259Z,9.33
2023-03-17T07:17:33.691Z,9.24
2023-03-17T07:20:00.230Z,9.48
2023-03-17T07:22:27.120Z,9.76
2023-03-17T07:24:56.742Z,9.90
2023-03-17T07:27:25.261Z,9.89
2023-03-17T07:29:52.238Z,10.06
2023-03-17T07:32:19.216Z,10.07
2023-03-17T07:34:45.725Z,10.22
2023-03-17T07:37:15.488Z,10.46
2023-03-17T07:39:42.001Z,10.61
2023-03-17T07:42:12.020Z,10.47
2023-03-17T07:44:41.534Z,10.57
2023-03-17T07:47:09.099Z,10.60
2023-03-17T07:49:41.766Z,10.67
2023-03-17T07:52:10.361Z,10.77
2023-03-17T07:54:42.663Z,10.87
2023-03-17T07:57:09.418Z,10.88
2023-03-17T07:59:36.037Z,10.84
2023-03-17T08:02:02.665Z,10.96
2023-03-17T08:04:29.262Z,11.08
2023-03-17T08:06:57.353Z,11.39
2023-03-17T08:09:24.052Z,11.39
2023-03-17T08:11:50.614Z,11.66
2023-03-17T08:14:17.215Z,11.81
2023-03-17T08:16:43.739Z,11.97
2023-03-17T08:19:11.054Z,12.07
2023-03-17T08:21:37.652Z,12.20
2023-03-17T08:24:05.231Z,12.28
2023-03-17T08:26:32.348Z,12.37
2023-03-17T08:28:58.947Z,12.41
2023-03-17T08:31:25.821Z,12.45
2023-03-17T08:33:54.468Z,12.68
2023-03-17T08:36:21.683Z,13.05
2023-03-17T08:38:48.897Z,12.98
2023-03-17T08:41:19.477Z,12.87
2023-03-17T08:43:46.902Z,12.85
2023-03-17T08:46:17.000Z,12.87
2023-03-17T08:48:45.131Z,12.96
2023-03-17T08:51:11.611Z,12.87
2023-03-17T08:53:38.842Z,12.92
2023-03-17T08:56:07.053Z,12.95
2023-03-17T08:58:37.629Z,13.08
2023-03-17T09:01:04.889Z,13.12
2023-03-17T09:03:32.659Z,13.12
2023-03-17T09:05:59.922Z,13.29
2023-03-17T09:08:27.730Z,13.58
2023-03-17T09:10:54.277Z,13.77
2023-03-17T09:13:21.940Z,13.88
2023-03-17T09:15:51.314Z,13.97
2023-03-17T09:18:21.887Z,14.19
2023-03-17T09:20:48.876Z,14.31
2023-03-17T09:23:15.935Z,14.33
2023-03-17T09:25:43.513Z,14.36
2023-03-17T09:28:12.376Z,14.41
2023-03-17T09:30:45.276Z,14.48
2023-03-17T09:33:13.596Z,14.45
2023-03-17T09:35:41.039Z,14.31
2023-03-17T09:38:08.893Z,14.29
2023-03-17T09:41:20.221Z,14.22
2023-03-17T09:43:56.669Z,14.19
2023-03-17T09:46:48.531Z,14.24
2023-03-17T09:49:20.499Z,14.29
2023-03-17T09:51:47.518Z,14.29
2023-03-17T09:54:33.744Z,14.45
2023-03-17T09:57:20.960Z,14.70
2023-03-17T09:59:53.539Z,14.85
2023-03-17T10:02:32.652Z,14.84
2023-03-17T10:05:17.108Z,14.81
2023-03-17T10:08:10.874Z,14.77
2023-03-17T10:11:13.438Z,14.76
2023-03-17T10:14:00.637Z,14.64
2023-03-17T10:16:54.713Z,14.68
2023-03-17T10:19:31.493Z,14.74
2023-03-17T10:22:27.844Z,14.74
2023-03-17T10:25:01.764Z,14.68
2023-03-17T10:27:34.632Z,14.78
2023-03-17T10:30:05.697Z,14.91
2023-03-17T10:32:37.906Z,14.94
2023-03-17T10:35:05.183Z,15.08
2023-03-17T10:37:36.546Z,15.12
2023-03-17T10:40:11.401Z,15.06
2023-03-17T10:42:51.834Z,15.06
2023-03-17T10:45:33.725Z,15.01
2023-03-17T10:48:04.256Z,15.01
2023-03-17T10:50:33.577Z,15.08
2023-03-17T10:53:08.931Z,15.15
2023-03-17T10:55:48.850Z,15.18
2023-03-17T10:58:18.040Z,15.36
2023-03-17T11:01:05.716Z,15.41
2023-03-17T11:03:38.744Z,15.47
2023-03-17T11:06:17.232Z,15.68
2023-03-17T11:08:56.288Z,15.78
2023-03-17T11:11:26.892Z,15.92
2023-03-17T11:14:13.866Z,15.93
2023-03-17T11:16:55.278Z,15.95
2023-03-17T11:19:54.938Z,15.78
2023-03-17T11:22:46.469Z,15.94
2023-03-17T11:25:19.457Z,15.93
2023-03-17T11:27:55.743Z,15.99
2023-03-17T11:30:42.167Z,15.86
2023-03-17T11:33:28.032Z,15.76
2023-03-17T11:36:01.681Z,15.96
2023-03-17T11:38:31.386Z,15.90
2023-03-17T11:41:14.195Z,15.71
2023-03-17T11:44:06.305Z,15.57
2023-03-17T11:46:59.346Z,15.42
2023-03-17T11:49:35.967Z,15.35
2023-03-17T11:52:03.108Z,15.21
2023-03-17T11:54:58.905Z,15.22
2023-03-17T11:57:44.611Z,15.27
2023-03-17T12:00:27.708Z,15.14
2023-03-17T12:03:07.196Z,15.09
2023-03-17T12:05:35.622Z,15.22
2023-03-17T12:08:11.948Z,15.33
2023-03-17T12:10:50.577Z,15.35
2023-03-17T12:13:36.295Z,15.35
2023-03-17T12:16:10.837Z,15.64
2023-03-17T12:18:49.376Z,15.73
2023-03-17T12:21:25.649Z,15.68
2023-03-17T12:24:09.918Z,15.58
2023-03-17T12:27:01.834Z,15.41
2023-03-17T12:29:43.539Z,15.50
2023-03-17T12:32:24.507Z,15.48
2023-03-17T12:34:57.380Z,15.29
2023-03-17T12:37:28.170Z,15.33
2023-03-17T12:40:14.436Z,15.29
2023-03-17T12:43:18.481Z,15.15
2023-03-17T12:45:54.406Z,15.08
2023-03-17T12:48:39.367Z,15.11
2023-03-17T12:51:09.031Z,15.10
2023-03-17T12:53:42.017Z,15.14
2023-03-17T12:56:30.003Z,15.10
2023-03-17T12:59:04.898Z,15.06
2023-03-17T13:01:43.209Z,15.03
2023-03-17T13:04:15.526Z,15.03
2023-03-17T13:06:58.859Z,14.97
2023-03-17T13:09:31.626Z,14.91
2023-03-17T13:12:00.322Z,14.95
2023-03-17T13:14:41.035Z,15.02
2023-03-17T13:17:17.516Z,15.04
2023-03-17T13:20:04.497Z,14.96
2023-03-17T13:22:38.775Z,14.98
2023-03-17T13:25:35.582Z,14.90
2023-03-17T13:28:24.221Z,14.89
2023-03-17T13:31:16.311Z,14.89
2023-03-17T13:33:53.192Z,14.89
2023-03-17T13:36:28.691Z,14.86
2023-03-17T13:39:22.360Z,14.89
2023-03-17T13:42:17.977Z,14.85
2023-03-17T13:45:29.429Z,14.84
2023-03-17T13:48:36.302Z,14.81
2023-03-17T13:51:13.920Z,14.83
2023-03-17T13:53:45.783Z,14.83
2023-03-17T13:56:45.291Z,14.83
2023-03-17T13:59:15.036Z,14.84
2023-03-17T14:01:52.125Z,14.85
2023-03-17T14:04:22.332Z,14.86
2023-03-17T14:06:51.976Z,14.79
2023-03-17T14:09:32.756Z,14.78
2023-03-17T14:12:02.584Z,14.74
2023-03-17T14:14:49.845Z,14.72
2023-03-17T14:17:25.233Z,14.72
2023-03-17T14:20:08.382Z,14.73
2023-03-17T14:22:52.702Z,14.72
2023-03-17T14:25:24.981Z,14.66
2023-03-17T14:27:54.248Z,14.60
2023-03-17T14:30:26.947Z,14.61
2023-03-17T14:33:00.958Z,14.61
2023-03-17T14:35:39.041Z,14.59
2023-03-17T14:38:17.402Z,14.60
2023-03-17T14:40:43.894Z,14.58
2023-03-17T14:43:11.557Z,14.53
2023-03-17T14:45:47.965Z,14.56
2023-03-17T14:48:18.314Z,14.53
2023-03-17T14:50:52.091Z,14.51
2023-03-17T14:53:20.416Z,14.48
2023-03-17T14:55:47.343Z,14.47
2023-03-17T14:58:42.751Z,14.47
2023-03-17T15:01:39.763Z,14.48
2023-03-17T15:04:28.627Z,14.47
2023-03-17T15:06:57.192Z,14.42
2023-03-17T15:09:27.935Z,14.42
2023-03-17T15:11:59.373Z,14.41
2023-03-17T15:14:35.384Z,14.36
2023-03-17T15:17:04.105Z,14.40
2023-03-17T15:19:44.116Z,14.38
2023-03-17T15:22:36.526Z,14.33
2023-03-17T15:25:37.156Z,14.31
2023-03-17T15:28:14.761Z,14.28
2023-03-17T15:30:47.464Z,14.33
2023-03-17T15:33:30.413Z,14.36
2023-03-17T15:36:00.008Z,14.33
2023-03-17T15:38:26.776Z,14.31
2023-03-17T15:40:53.991Z,14.25
2023-03-17T15:43:23.834Z,14.23
2023-03-17T15:46:16.598Z,14.29
2023-03-17T15:48:43.080Z,14.31
2023-03-17T15:51:10.727Z,14.24
2023-03-17T15:53:37.237Z,14.21
2023-03-17T15:56:03.700Z,14.14
2023-03-17T15:58:30.359Z,14.08
2023-03-17T16:00:59.624Z,14.07
2023-03-17T16:03:32.334Z,14.08
2023-03-17T16:05:59.783Z,14.03
2023-03-17T16:08:26.453Z,13.98
2023-03-17T16:10:53.073Z,14.04
2023-03-17T16:13:19.810Z,14.16
2023-03-17T16:16:00.848Z,14.01
2023-03-17T16:18:37.626Z,13.92
2023-03-17T16:21:04.722Z,13.99
2023-03-17T16:23:36.517Z,14.09
2023-03-17T16:26:14.411Z,14.04
2023-03-17T16:28:44.538Z,14.00
2023-03-17T16:31:19.516Z,14.01
2023-03-17T16:33:46.509Z,13.95
2023-03-17T16:36:18.175Z,13.91
2023-03-17T16:38:45.549Z,13.91
2023-03-17T16:41:21.350Z,13.93
2023-03-17T16:43:55.044Z,13.96
2023-03-17T16:46:22.636Z,13.96
2023-03-17T16:48:50.506Z,13.86
2023-03-17T16:51:17.686Z,13.79
2023-03-17T16:53:44.845Z,13.81
2023-03-17T16:56:20.459Z,13.82
2023-03-17T16:58:48.090Z,13.82
2023-03-17T17:01:23.662Z,13.72
2023-03-17T17:03:50.726Z,13.65
2023-03-17T17:06:19.251Z,13.56
2023-03-17T17:08:47.210Z,13.51
2023-03-17T17:11:15.997Z,13.56
2023-03-17T17:13:45.049Z,13.54
2023-03-17T17:16:33.618Z,13.49
2023-03-17T17:19:01.231Z,13.50
2023-03-17T17:21:30.939Z,13.48
2023-03-17T17:23:58.623Z,13.47
2023-03-17T17:26:25.586Z,13.39
2023-03-17T17:28:52.251Z,13.33
2023-03-17T17:31:18.996Z,13.33
2023-03-17T17:33:48.674Z,13.39
2023-03-17T17:36:16.960Z,13.43
2023-03-17T17:38:44.309Z,13.44
2023-03-17T17:41:15.149Z,13.47
2023-03-17T17:43:41.689Z,13.53
2023-03-17T17:46:20.151Z,13.50
2023-03-17T17:48:47.596Z,13.47
2023-03-17T17:51:14.521Z,13.51
2023-03-17T17:53:41.035Z,13.47
2023-03-17T17:56:08.314Z,13.44
2023-03-17T17:58:34.781Z,13.45
2023-03-17T18:01:02.276Z,13.49
2023-03-17T18:03:30.321Z,13.48
2023-03-17T18:05:59.112Z,13.43
2023-03-17T18:08:25.922Z,13.44
2023-03-17T18:10:55.758Z,13.48
2023-03-17T18:13:22.264Z,13.51
2023-03-17T18:15:48.890Z,13.45
2023-03-17T18:18:15.401Z,13.48
2023-03-17T18:20:41.980Z,13.45
2023-03-17T18:23:08.544Z,13.42
2023-03-17T18:25:35.738Z,13.38
2023-03-17T18:28:04.952Z,13.26
2023-03-17T18:30:34.811Z,13.11
2023-03-17T18:33:09.272Z,13.28
2023-03-17T18:35:36.199Z,13.36
2023-03-17T18:38:03.020Z,13.25
2023-03-17T18:40:29.739Z,13.18
2023-03-17T18:42:56.340Z,13.20
2023-03-17T18:45:23.134Z,13.21
2023-03-17T18:47:53.211Z,13.20
2023-03-17T18:50:22.254Z,13.21
2023-03-17T18:52:49.213Z,13.17
2023-03-17T18:55:15.740Z,13.17
2023-03-17T18:57:44.619Z,13.16
2023-03-17T19:00:13.263Z,13.15
2023-03-17T19:02:42.564Z,13.19
2023-03-17T19:05:09.491Z,13.23
2023-03-17T19:07:40.351Z,13.22
2023-03-17T19:10:10.931Z,13.20
2023-03-17T19:12:38.140Z,13.24
2023-03-17T19:15:06.613Z,13.29
2023-03-17T19:17:33.711Z,13.29
2023-03-17T19:20:00.264Z,13.29
2023-03-17T19:22:27.048Z,13.21
2023-03-17T19:24:53.620Z,13.31
2023-03-17T19:27:20.116Z,13.47
2023-03-17T19:29:46.621Z,13.38
2023-03-17T19:32:13.285Z,13.30
2023-03-17T19:34:39.872Z,13.26
2023-03-17T19:37:06.451Z,13.14
2023-03-17T19:39:33.877Z,13.06
2023-03-17T19:42:00.962Z,13.09
2023-03-17T19:44:27.530Z,13.08
2023-03-17T19:46:54.043Z,13.02
2023-03-17T19:49:21.316Z,12.93
2023-03-17T19:51:49.028Z,12.84
2023-03-17T19:54:15.762Z,13.00
2023-03-17T19:56:42.549Z,13.01
2023-03-17T19:59:09.363Z,13.04
2023-03-17T20:01:37.848Z,13.04
2023-03-17T20:04:06.957Z,13.07
2023-03-17T20:06:34.543Z,13.13
2023-03-17T20:09:03.867Z,13.13
2023-03-17T20:11:33.804Z,13.08
2023-03-17T20:14:02.120Z,13.09
2023-03-17T20:16:31.811Z,13.12
2023-03-17T20:18:58.346Z,13.21
2023-03-17T20:21:24.857Z,13.21
2023-03-17T20:23:51.538Z,13.24
2023-03-17T20:26:19.031Z,13.27
2023-03-17T20:28:46.403Z,13.25
2023-03-17T20:31:13.352Z,13.25
2023-03-17T20:33:40.028Z,13.23
2023-03-17T20:36:06.868Z,13.29
2023-03-17T20:38:36.857Z,13.27
2023-03-17T20:41:14.958Z,13.26
2023-03-17T20:43:41.803Z,13.29
2023-03-17T20:46:13.714Z,13.29
2023-03-17T20:48:40.149Z,13.27
2023-03-17T20:51:09.355Z,13.33
2023-03-17T20:53:36.228Z,13.40
2023-03-17T20:56:02.998Z,13.46
2023-03-17T20:58:30.448Z,13.50
2023-03-17T21:00:58.443Z,13.51
2023-03-17T21:03:25.270Z,13.46
2023-03-17T21:05:53.460Z,13.50
2023-03-17T21:08:19.993Z,13.43
2023-03-17T21:10:46.652Z,13.43
2023-03-17T21:13:13.357Z,13.40
2023-03-17T21:15:41.091Z,13.42
2023-03-17T21:18:07.683Z,13.39
2023-03-17T21:20:37.583Z,13.44
2023-03-17T21:23:07.657Z,13.36
2023-03-17T21:25:41.773Z,13.31
2023-03-17T21:28:08.238Z,13.28
2023-03-17T21:30:36.984Z,13.31
2023-03-17T21:33:05.925Z,13.32
2023-03-17T21:35:34.727Z,13.32
2023-03-17T21:38:01.941Z,13.40
2023-03-17T21:40:32.757Z,13.41
2023-03-17T21:43:06.722Z,13.47
2023-03-17T21:45:33.379Z,13.43
2023-03-17T21:48:06.575Z,13.45
2023-03-17T21:50:36.770Z,13.46
2023-03-17T21:53:04.545Z,13.45
2023-03-17T21:55:31.306Z,13.53
2023-03-17T21:57:58.990Z,13.55
2023-03-17T22:00:35.940Z,13.57
2023-03-17T22:03:09.372Z,13.52
2023-03-17T22:05:36.095Z,13.53
2023-03-17T22:08:05.555Z,13.56
2023-03-17T22:10:32.623Z,13.62
2023-03-17T22:12:59.224Z,13.66
2023-03-17T22:15:31.077Z,13.61
2023-03-17T22:17:57.652Z,13.62
2023-03-17T22:20:24.308Z,13.57
2023-03-17T22:22:51.365Z,13.60
2023-03-17T22:25:23.307Z,13.54
2023-03-17T22:27:55.965Z,13.52
2023-03-17T22:30:22.973Z,13.53
2023-03-17T22:32:53.049Z,13.53
2023-03-17T22:35:20.931Z,13.55
2023-03-17T22:37:47.400Z,13.56
2023-03-17T22:40:14.804Z,13.61
2023-03-17T22:42:41.496Z,13.62
2023-03-17T22:45:08.523Z,13.60
2023-03-17T22:47:35.023Z,13.62
2023-03-17T22:50:01.518Z,13.59
2023-03-17T22:52:28.084Z,13.54
2023-03-17T22:54:54.591Z,13.49
2023-03-17T22:57:21.194Z,13.54
2023-03-17T22:59:47.713Z,13.52
2023-03-17T23:02:16.228Z,13.52
2023-03-17T23:04:46.962Z,13.54
2023-03-17T23:07:14.927Z,13.54
2023-03-17T23:09:45.201Z,13.50
2023-03-17T23:12:12.566Z,13.49
2023-03-17T23:14:40.046Z,13.46
2023-03-17T23:17:09.454Z,13.41
2023-03-17T23:19:36.244Z,13.45
2023-03-17T23:22:02.964Z,13.41
2023-03-17T23:24:29.436Z,13.37
2023-03-17T23:26:58.836Z,13.36
2023-03-17T23:29:25.308Z,13.37
2023-03-17T23:31:52.056Z,13.38
2023-03-17T23:34:19.123Z,13.33
2023-03-17T23:36:50.565Z,13.36
2023-03-17T23:39:17.069Z,13.42
2023-03-17T23:41:44.899Z,13.43
2023-03-17T23:44:11.687Z,13.36
2023-03-17T23:46:41.704Z,13.38
2023-03-17T23:49:08.311Z,13.37
2023-03-17T23:51:35.499Z,13.37
2023-03-17T23:54:02.018Z,13.32
2023-03-17T23:56:28.487Z,13.20
2023-03-17T23:58:55.895Z,13.16
